sensor_id;sensor_type;location;lat;lon;timestamp;P1;durP1;ratioP1;P2;durP2;ratioP2
51995;SDS011;38010;53.264;6.592;2023-05-07T00:00:22;2.55;;;2.35;;
51995;SDS011;38010;53.264;6.592;2023-05-07T00:02:48;2.92;;;2.63;;
51995;SDS011;38010;53.264;6.592;2023-05-07T00:05:14;2.70;;;2.50;;
51995;SDS011;38010;53.264;6.592;2023-05-07T00:07:39;2.53;;;2.33;;
51995;SDS011;38010;53.264;6.592;2023-05-07T00:10:05;2.78;;;2.50;;
51995;SDS011;38010;53.264;6.592;2023-05-07T00:12:32;2.85;;;2.53;;
51995;SDS011;38010;53.264;6.592;2023-05-07T00:15:01;2.70;;;2.42;;
51995;SDS011;38010;53.264;6.592;2023-05-07T00:17:29;2.40;;;2.20;;
51995;SDS011;38010;53.264;6.592;2023-05-07T00:19:55;3.03;;;2.40;;
51995;SDS011;38010;53.264;6.592;2023-05-07T00:22:20;2.22;;;2.03;;
51995;SDS011;38010;53.264;6.592;2023-05-07T00:24:46;2.22;;;2.03;;
51995;SDS011;38010;53.264;6.592;2023-05-07T00:27:12;2.75;;;2.53;;
51995;SDS011;38010;53.264;6.592;2023-05-07T00:29:38;2.80;;;2.60;;
51995;SDS011;38010;53.264;6.592;2023-05-07T00:32:04;2.75;;;2.50;;
51995;SDS011;38010;53.264;6.592;2023-05-07T00:34:30;2.58;;;2.35;;
51995;SDS011;38010;53.264;6.592;2023-05-07T00:36:56;2.58;;;2.38;;
51995;SDS011;38010;53.264;6.592;2023-05-07T00:39:21;2.42;;;2.22;;
51995;SDS011;38010;53.264;6.592;2023-05-07T00:41:47;2.53;;;2.33;;
51995;SDS011;38010;53.264;6.592;2023-05-07T00:44:13;2.70;;;2.50;;
51995;SDS011;38010;53.264;6.592;2023-05-07T00:46:39;2.30;;;2.10;;
51995;SDS011;38010;53.264;6.592;2023-05-07T00:49:05;2.63;;;2.35;;
51995;SDS011;38010;53.264;6.592;2023-05-07T00:51:31;4.10;;;2.38;;
51995;SDS011;38010;53.264;6.592;2023-05-07T00:53:59;2.38;;;2.17;;
51995;SDS011;38010;53.264;6.592;2023-05-07T00:56:27;2.33;;;2.13;;
51995;SDS011;38010;53.264;6.592;2023-05-07T00:58:52;2.95;;;2.65;;
51995;SDS011;38010;53.264;6.592;2023-05-07T01:01:18;2.60;;;2.40;;
51995;SDS011;38010;53.264;6.592;2023-05-07T01:03:44;2.47;;;2.28;;
51995;SDS011;38010;53.264;6.592;2023-05-07T01:06:10;2.35;;;2.15;;
51995;SDS011;38010;53.264;6.592;2023-05-07T01:08:38;2.33;;;2.13;;
51995;SDS011;38010;53.264;6.592;2023-05-07T01:11:06;2.75;;;2.08;;
51995;SDS011;38010;53.264;6.592;2023-05-07T01:13:33;2.53;;;2.33;;
51995;SDS011;38010;53.264;6.592;2023-05-07T01:16:00;2.75;;;2.40;;
51995;SDS011;38010;53.264;6.592;2023-05-07T01:18:25;2.80;;;2.60;;
51995;SDS011;38010;53.264;6.592;2023-05-07T01:20:52;2.72;;;2.33;;
51995;SDS011;38010;53.264;6.592;2023-05-07T01:23:18;2.95;;;2.45;;
51995;SDS011;38010;53.264;6.592;2023-05-07T01:25:51;2.30;;;2.10;;
51995;SDS011;38010;53.264;6.592;2023-05-07T01:28:20;2.67;;;2.45;;
51995;SDS011;38010;53.264;6.592;2023-05-07T01:30:47;2.17;;;1.98;;
51995;SDS011;38010;53.264;6.592;2023-05-07T01:33:18;2.60;;;2.40;;
51995;SDS011;38010;53.264;6.592;2023-05-07T01:35:47;2.50;;;2.30;;
51995;SDS011;38010;53.264;6.592;2023-05-07T01:38:15;2.10;;;1.90;;
51995;SDS011;38010;53.264;6.592;2023-05-07T01:40:42;2.13;;;1.92;;
51995;SDS011;38010;53.264;6.592;2023-05-07T01:43:08;5.00;;;3.17;;
51995;SDS011;38010;53.264;6.592;2023-05-07T01:45:35;2.50;;;2.30;;
51995;SDS011;38010;53.264;6.592;2023-05-07T01:48:02;2.55;;;2.35;;
51995;SDS011;38010;53.264;6.592;2023-05-07T01:50:28;2.65;;;2.45;;
51995;SDS011;38010;53.264;6.592;2023-05-07T01:52:55;3.08;;;2.80;;
51995;SDS011;38010;53.264;6.592;2023-05-07T01:55:21;2.40;;;2.20;;
51995;SDS011;38010;53.264;6.592;2023-05-07T01:57:47;2.67;;;2.47;;
51995;SDS011;38010;53.264;6.592;2023-05-07T02:00:13;2.95;;;2.30;;
51995;SDS011;38010;53.264;6.592;2023-05-07T02:02:39;2.70;;;2.50;;
51995;SDS011;38010;53.264;6.592;2023-05-07T02:05:05;2.47;;;2.28;;
51995;SDS011;38010;53.264;6.592;2023-05-07T02:07:31;2.65;;;2.45;;
51995;SDS011;38010;53.264;6.592;2023-05-07T02:09:56;2.95;;;2.67;;
51995;SDS011;38010;53.264;6.592;2023-05-07T02:12:22;3.30;;;2.45;;
51995;SDS011;38010;53.264;6.592;2023-05-07T02:14:48;2.92;;;2.53;;
51995;SDS011;38010;53.264;6.592;2023-05-07T02:17:14;3.10;;;2.80;;
51995;SDS011;38010;53.264;6.592;2023-05-07T02:19:40;2.60;;;2.40;;
51995;SDS011;38010;53.264;6.592;2023-05-07T02:22:06;3.10;;;2.80;;
51995;SDS011;38010;53.264;6.592;2023-05-07T02:24:32;2.60;;;2.40;;
51995;SDS011;38010;53.264;6.592;2023-05-07T02:26:58;2.85;;;2.65;;
51995;SDS011;38010;53.264;6.592;2023-05-07T02:29:24;2.92;;;2.63;;
51995;SDS011;38010;53.264;6.592;2023-05-07T02:31:49;3.20;;;2.90;;
51995;SDS011;38010;53.264;6.592;2023-05-07T02:34:16;3.60;;;3.30;;
51995;SDS011;38010;53.264;6.592;2023-05-07T02:36:42;2.90;;;2.63;;
51995;SDS011;38010;53.264;6.592;2023-05-07T02:39:08;2.92;;;2.70;;
51995;SDS011;38010;53.264;6.592;2023-05-07T02:41:34;3.50;;;3.03;;
51995;SDS011;38010;53.264;6.592;2023-05-07T02:43:59;3.22;;;2.92;;
51995;SDS011;38010;53.264;6.592;2023-05-07T02:46:25;2.92;;;2.63;;
51995;SDS011;38010;53.264;6.592;2023-05-07T02:48:51;3.40;;;3.10;;
51995;SDS011;38010;53.264;6.592;2023-05-07T02:51:20;3.08;;;2.78;;
51995;SDS011;38010;53.264;6.592;2023-05-07T02:53:46;3.60;;;3.30;;
51995;SDS011;38010;53.264;6.592;2023-05-07T02:56:12;3.20;;;2.90;;
51995;SDS011;38010;53.264;6.592;2023-05-07T02:58:38;2.75;;;2.55;;
51995;SDS011;38010;53.264;6.592;2023-05-07T03:01:04;3.13;;;2.83;;
51995;SDS011;38010;53.264;6.592;2023-05-07T03:03:30;3.03;;;2.80;;
51995;SDS011;38010;53.264;6.592;2023-05-07T03:05:56;3.50;;;3.20;;
51995;SDS011;38010;53.264;6.592;2023-05-07T03:08:22;3.63;;;3.30;;
51995;SDS011;38010;53.264;6.592;2023-05-07T03:10:49;3.33;;;3.03;;
51995;SDS011;38010;53.264;6.592;2023-05-07T03:13:14;3.92;;;3.53;;
51995;SDS011;38010;53.264;6.592;2023-05-07T03:15:40;3.70;;;3.40;;
51995;SDS011;38010;53.264;6.592;2023-05-07T03:18:06;3.65;;;3.35;;
51995;SDS011;38010;53.264;6.592;2023-05-07T03:20:32;3.38;;;3.08;;
51995;SDS011;38010;53.264;6.592;2023-05-07T03:22:57;3.30;;;3.00;;
51995;SDS011;38010;53.264;6.592;2023-05-07T03:25:23;3.35;;;3.05;;
51995;SDS011;38010;53.264;6.592;2023-05-07T03:27:49;3.60;;;3.30;;
51995;SDS011;38010;53.264;6.592;2023-05-07T03:30:15;3.25;;;2.95;;
51995;SDS011;38010;53.264;6.592;2023-05-07T03:32:40;3.22;;;2.95;;
51995;SDS011;38010;53.264;6.592;2023-05-07T03:35:06;3.92;;;3.28;;
51995;SDS011;38010;53.264;6.592;2023-05-07T03:37:32;3.00;;;2.70;;
51995;SDS011;38010;53.264;6.592;2023-05-07T03:39:58;3.60;;;3.30;;
51995;SDS011;38010;53.264;6.592;2023-05-07T03:42:24;3.38;;;3.08;;
51995;SDS011;38010;53.264;6.592;2023-05-07T03:44:50;3.65;;;2.80;;
51995;SDS011;38010;53.264;6.592;2023-05-07T03:47:16;3.40;;;3.10;;
51995;SDS011;38010;53.264;6.592;2023-05-07T03:49:41;3.38;;;3.08;;
51995;SDS011;38010;53.264;6.592;2023-05-07T03:52:07;3.75;;;3.42;;
51995;SDS011;38010;53.264;6.592;2023-05-07T03:54:33;3.83;;;3.53;;
51995;SDS011;38010;53.264;6.592;2023-05-07T03:56:58;3.75;;;3.42;;
51995;SDS011;38010;53.264;6.592;2023-05-07T03:59:24;4.10;;;3.78;;
51995;SDS011;38010;53.264;6.592;2023-05-07T04:01:50;3.38;;;3.13;;
51995;SDS011;38010;53.264;6.592;2023-05-07T04:04:16;3.58;;;3.28;;
51995;SDS011;38010;53.264;6.592;2023-05-07T04:06:42;3.10;;;2.90;;
51995;SDS011;38010;53.264;6.592;2023-05-07T04:09:07;3.13;;;2.83;;
51995;SDS011;38010;53.264;6.592;2023-05-07T04:11:33;3.15;;;2.85;;
51995;SDS011;38010;53.264;6.592;2023-05-07T04:14:00;3.53;;;3.22;;
51995;SDS011;38010;53.264;6.592;2023-05-07T04:16:26;3.30;;;3.00;;
51995;SDS011;38010;53.264;6.592;2023-05-07T04:18:51;4.00;;;3.60;;
51995;SDS011;38010;53.264;6.592;2023-05-07T04:21:18;3.45;;;3.15;;
51995;SDS011;38010;53.264;6.592;2023-05-07T04:23:48;3.30;;;3.00;;
51995;SDS011;38010;53.264;6.592;2023-05-07T04:26:14;3.75;;;3.42;;
51995;SDS011;38010;53.264;6.592;2023-05-07T04:28:41;3.25;;;2.95;;
51995;SDS011;38010;53.264;6.592;2023-05-07T04:31:06;3.60;;;3.30;;
51995;SDS011;38010;53.264;6.592;2023-05-07T04:33:33;2.90;;;2.70;;
51995;SDS011;38010;53.264;6.592;2023-05-07T04:36:02;3.30;;;3.00;;
51995;SDS011;38010;53.264;6.592;2023-05-07T04:38:32;3.35;;;3.05;;
51995;SDS011;38010;53.264;6.592;2023-05-07T04:41:02;3.25;;;2.95;;
51995;SDS011;38010;53.264;6.592;2023-05-07T04:43:30;3.20;;;2.97;;
51995;SDS011;38010;53.264;6.592;2023-05-07T04:45:56;3.25;;;2.95;;
51995;SDS011;38010;53.264;6.592;2023-05-07T04:48:21;3.08;;;2.80;;
51995;SDS011;38010;53.264;6.592;2023-05-07T04:50:48;2.83;;;2.63;;
51995;SDS011;38010;53.264;6.592;2023-05-07T04:53:14;3.40;;;3.10;;
51995;SDS011;38010;53.264;6.592;2023-05-07T04:55:39;3.17;;;2.88;;
51995;SDS011;38010;53.264;6.592;2023-05-07T04:58:05;3.58;;;3.22;;
51995;SDS011;38010;53.264;6.592;2023-05-07T05:00:31;3.33;;;3.03;;
51995;SDS011;38010;53.264;6.592;2023-05-07T05:02:56;3.20;;;2.90;;
51995;SDS011;38010;53.264;6.592;2023-05-07T05:05:22;3.40;;;3.10;;
51995;SDS011;38010;53.264;6.592;2023-05-07T05:07:48;3.33;;;3.03;;
51995;SDS011;38010;53.264;6.592;2023-05-07T05:10:13;2.97;;;2.67;;
51995;SDS011;38010;53.264;6.592;2023-05-07T05:12:39;2.70;;;2.50;;
51995;SDS011;38010;53.264;6.592;2023-05-07T05:15:05;3.10;;;2.80;;
51995;SDS011;38010;53.264;6.592;2023-05-07T05:17:31;2.95;;;2.75;;
51995;SDS011;38010;53.264;6.592;2023-05-07T05:19:59;3.33;;;3.03;;
51995;SDS011;38010;53.264;6.592;2023-05-07T05:22:25;3.40;;;3.10;;
51995;SDS011;38010;53.264;6.592;2023-05-07T05:24:50;3.58;;;3.28;;
51995;SDS011;38010;53.264;6.592;2023-05-07T05:27:16;3.63;;;3.33;;
51995;SDS011;38010;53.264;6.592;2023-05-07T05:29:42;4.10;;;3.70;;
51995;SDS011;38010;53.264;6.592;2023-05-07T05:32:07;3.47;;;3.17;;
51995;SDS011;38010;53.264;6.592;2023-05-07T05:34:33;3.17;;;2.88;;
51995;SDS011;38010;53.264;6.592;2023-05-07T05:36:59;3.72;;;3.42;;
51995;SDS011;38010;53.264;6.592;2023-05-07T05:39:25;3.50;;;3.20;;
51995;SDS011;38010;53.264;6.592;2023-05-07T05:41:51;3.40;;;3.15;;
51995;SDS011;38010;53.264;6.592;2023-05-07T05:44:16;3.85;;;3.55;;
51995;SDS011;38010;53.264;6.592;2023-05-07T05:46:42;3.92;;;3.63;;
51995;SDS011;38010;53.264;6.592;2023-05-07T05:49:08;4.50;;;4.10;;
51995;SDS011;38010;53.264;6.592;2023-05-07T05:51:34;4.10;;;3.70;;
51995;SDS011;38010;53.264;6.592;2023-05-07T05:53:59;4.10;;;3.80;;
51995;SDS011;38010;53.264;6.592;2023-05-07T05:56:25;4.07;;;3.78;;
51995;SDS011;38010;53.264;6.592;2023-05-07T05:58:51;3.95;;;3.55;;
51995;SDS011;38010;53.264;6.592;2023-05-07T06:01:17;4.25;;;3.95;;
51995;SDS011;38010;53.264;6.592;2023-05-07T06:03:43;4.28;;;3.88;;
51995;SDS011;38010;53.264;6.592;2023-05-07T06:06:09;3.80;;;3.50;;
51995;SDS011;38010;53.264;6.592;2023-05-07T06:08:35;4.43;;;3.88;;
51995;SDS011;38010;53.264;6.592;2023-05-07T06:11:01;4.32;;;3.92;;
51995;SDS011;38010;53.264;6.592;2023-05-07T06:13:28;4.35;;;3.95;;
51995;SDS011;38010;53.264;6.592;2023-05-07T06:15:53;4.55;;;4.15;;
51995;SDS011;38010;53.264;6.592;2023-05-07T06:18:19;4.43;;;4.03;;
51995;SDS011;38010;53.264;6.592;2023-05-07T06:20:45;4.35;;;3.95;;
51995;SDS011;38010;53.264;6.592;2023-05-07T06:23:11;4.22;;;3.83;;
51995;SDS011;38010;53.264;6.592;2023-05-07T06:25:36;4.45;;;4.05;;
51995;SDS011;38010;53.264;6.592;2023-05-07T06:28:02;4.40;;;4.00;;
51995;SDS011;38010;53.264;6.592;2023-05-07T06:30:28;4.68;;;4.28;;
51995;SDS011;38010;53.264;6.592;2023-05-07T06:32:53;5.07;;;4.25;;
51995;SDS011;38010;53.264;6.592;2023-05-07T06:35:19;4.40;;;4.00;;
51995;SDS011;38010;53.264;6.592;2023-05-07T06:37:45;4.90;;;3.97;;
51995;SDS011;38010;53.264;6.592;2023-05-07T06:40:11;4.40;;;4.00;;
51995;SDS011;38010;53.264;6.592;2023-05-07T06:42:36;3.95;;;3.60;;
51995;SDS011;38010;53.264;6.592;2023-05-07T06:45:03;4.35;;;3.95;;
51995;SDS011;38010;53.264;6.592;2023-05-07T06:47:29;4.28;;;3.90;;
51995;SDS011;38010;53.264;6.592;2023-05-07T06:49:55;4.10;;;3.80;;
51995;SDS011;38010;53.264;6.592;2023-05-07T06:52:20;4.35;;;3.95;;
51995;SDS011;38010;53.264;6.592;2023-05-07T06:54:46;4.07;;;3.75;;
51995;SDS011;38010;53.264;6.592;2023-05-07T06:57:12;3.88;;;3.58;;
51995;SDS011;38010;53.264;6.592;2023-05-07T06:59:38;4.55;;;4.15;;
51995;SDS011;38010;53.264;6.592;2023-05-07T07:02:03;3.90;;;3.60;;
51995;SDS011;38010;53.264;6.592;2023-05-07T07:04:29;4.18;;;3.80;;
51995;SDS011;38010;53.264;6.592;2023-05-07T07:06:55;4.03;;;3.72;;
51995;SDS011;38010;53.264;6.592;2023-05-07T07:09:21;4.32;;;3.72;;
51995;SDS011;38010;53.264;6.592;2023-05-07T07:11:47;3.72;;;3.42;;
51995;SDS011;38010;53.264;6.592;2023-05-07T07:14:13;3.67;;;3.38;;
51995;SDS011;38010;53.264;6.592;2023-05-07T07:16:39;4.03;;;3.67;;
51995;SDS011;38010;53.264;6.592;2023-05-07T07:19:05;3.88;;;3.58;;
51995;SDS011;38010;53.264;6.592;2023-05-07T07:21:31;4.22;;;3.83;;
51995;SDS011;38010;53.264;6.592;2023-05-07T07:23:57;4.05;;;3.67;;
51995;SDS011;38010;53.264;6.592;2023-05-07T07:26:23;3.60;;;3.30;;
51995;SDS011;38010;53.264;6.592;2023-05-07T07:28:48;4.38;;;3.97;;
51995;SDS011;38010;53.264;6.592;2023-05-07T07:31:14;3.65;;;3.35;;
51995;SDS011;38010;53.264;6.592;2023-05-07T07:33:40;3.53;;;3.22;;
51995;SDS011;38010;53.264;6.592;2023-05-07T07:36:06;3.72;;;3.42;;
51995;SDS011;38010;53.264;6.592;2023-05-07T07:38:32;3.80;;;3.50;;
51995;SDS011;38010;53.264;6.592;2023-05-07T07:40:58;3.95;;;3.60;;
51995;SDS011;38010;53.264;6.592;2023-05-07T07:43:24;3.85;;;3.45;;
51995;SDS011;38010;53.264;6.592;2023-05-07T07:45:50;3.92;;;3.63;;
51995;SDS011;38010;53.264;6.592;2023-05-07T07:48:16;3.50;;;3.20;;
51995;SDS011;38010;53.264;6.592;2023-05-07T07:50:41;3.53;;;3.22;;
51995;SDS011;38010;53.264;6.592;2023-05-07T07:53:07;2.80;;;2.60;;
51995;SDS011;38010;53.264;6.592;2023-05-07T07:55:37;5.05;;;3.60;;
51995;SDS011;38010;53.264;6.592;2023-05-07T07:58:04;3.30;;;3.00;;
51995;SDS011;38010;53.264;6.592;2023-05-07T08:00:30;3.78;;;3.47;;
51995;SDS011;38010;53.264;6.592;2023-05-07T08:02:56;3.97;;;3.45;;
51995;SDS011;38010;53.264;6.592;2023-05-07T08:05:22;3.65;;;3.35;;
51995;SDS011;38010;53.264;6.592;2023-05-07T08:07:48;3.25;;;2.95;;
51995;SDS011;38010;53.264;6.592;2023-05-07T08:10:17;3.65;;;3.35;;
51995;SDS011;38010;53.264;6.592;2023-05-07T08:12:49;3.40;;;3.10;;
51995;SDS011;38010;53.264;6.592;2023-05-07T08:15:15;3.47;;;3.17;;
51995;SDS011;38010;53.264;6.592;2023-05-07T08:17:42;3.20;;;2.90;;
51995;SDS011;38010;53.264;6.592;2023-05-07T08:20:08;3.33;;;3.03;;
51995;SDS011;38010;53.264;6.592;2023-05-07T08:22:34;3.47;;;3.17;;
51995;SDS011;38010;53.264;6.592;2023-05-07T08:25:03;3.63;;;3.33;;
51995;SDS011;38010;53.264;6.592;2023-05-07T08:27:29;3.25;;;2.95;;
51995;SDS011;38010;53.264;6.592;2023-05-07T08:29:55;3.10;;;2.80;;
51995;SDS011;38010;53.264;6.592;2023-05-07T08:32:21;3.53;;;3.22;;
51995;SDS011;38010;53.264;6.592;2023-05-07T08:34:47;3.55;;;3.22;;
51995;SDS011;38010;53.264;6.592;2023-05-07T08:37:13;3.45;;;3.15;;
51995;SDS011;38010;53.264;6.592;2023-05-07T08:39:39;3.60;;;3.30;;
51995;SDS011;38010;53.264;6.592;2023-05-07T08:42:04;2.92;;;2.67;;
51995;SDS011;38010;53.264;6.592;2023-05-07T08:44:34;2.90;;;2.70;;
51995;SDS011;38010;53.264;6.592;2023-05-07T08:47:01;2.60;;;2.40;;
51995;SDS011;38010;53.264;6.592;2023-05-07T08:49:27;3.28;;;2.97;;
51995;SDS011;38010;53.264;6.592;2023-05-07T08:51:54;3.60;;;3.30;;
51995;SDS011;38010;53.264;6.592;2023-05-07T08:54:21;3.00;;;2.70;;
51995;SDS011;38010;53.264;6.592;2023-05-07T08:56:47;2.75;;;2.50;;
51995;SDS011;38010;53.264;6.592;2023-05-07T08:59:13;2.50;;;2.30;;
51995;SDS011;38010;53.264;6.592;2023-05-07T09:01:39;2.60;;;2.40;;
51995;SDS011;38010;53.264;6.592;2023-05-07T09:04:05;2.67;;;2.47;;
51995;SDS011;38010;53.264;6.592;2023-05-07T09:06:32;3.30;;;3.00;;
51995;SDS011;38010;53.264;6.592;2023-05-07T09:08:59;2.95;;;2.70;;
51995;SDS011;38010;53.264;6.592;2023-05-07T09:11:26;2.47;;;2.28;;
51995;SDS011;38010;53.264;6.592;2023-05-07T09:13:55;2.92;;;2.50;;
51995;SDS011;38010;53.264;6.592;2023-05-07T09:16:23;2.50;;;2.30;;
51995;SDS011;38010;53.264;6.592;2023-05-07T09:18:53;2.95;;;2.75;;
51995;SDS011;38010;53.264;6.592;2023-05-07T09:21:20;3.53;;;3.22;;
51995;SDS011;38010;53.264;6.592;2023-05-07T09:23:51;2.65;;;2.45;;
51995;SDS011;38010;53.264;6.592;2023-05-07T09:26:17;2.53;;;2.33;;
51995;SDS011;38010;53.264;6.592;2023-05-07T09:28:46;3.40;;;3.10;;
51995;SDS011;38010;53.264;6.592;2023-05-07T09:31:11;2.70;;;2.50;;
51995;SDS011;38010;53.264;6.592;2023-05-07T09:33:38;2.88;;;2.67;;
51995;SDS011;38010;53.264;6.592;2023-05-07T09:36:04;2.90;;;2.60;;
51995;SDS011;38010;53.264;6.592;2023-05-07T09:38:32;2.88;;;2.67;;
51995;SDS011;38010;53.264;6.592;2023-05-07T09:41:05;3.65;;;2.47;;
51995;SDS011;38010;53.264;6.592;2023-05-07T09:43:36;2.53;;;2.33;;
51995;SDS011;38010;53.264;6.592;2023-05-07T09:48:36;2.40;;;2.20;;
51995;SDS011;38010;53.264;6.592;2023-05-07T09:51:06;2.70;;;2.50;;
51995;SDS011;38010;53.264;6.592;2023-05-07T09:53:56;3.03;;;2.75;;
51995;SDS011;38010;53.264;6.592;2023-05-07T09:56:25;2.85;;;2.55;;
51995;SDS011;38010;53.264;6.592;2023-05-07T09:58:52;2.83;;;2.60;;
51995;SDS011;38010;53.264;6.592;2023-05-07T10:01:21;2.72;;;2.53;;
51995;SDS011;38010;53.264;6.592;2023-05-07T10:03:47;2.75;;;2.47;;
51995;SDS011;38010;53.264;6.592;2023-05-07T10:06:16;3.03;;;2.70;;
51995;SDS011;38010;53.264;6.592;2023-05-07T10:08:43;2.55;;;2.35;;
51995;SDS011;38010;53.264;6.592;2023-05-07T10:11:09;3.00;;;2.67;;
51995;SDS011;38010;53.264;6.592;2023-05-07T10:13:35;3.10;;;2.80;;
51995;SDS011;38010;53.264;6.592;2023-05-07T10:16:03;2.63;;;2.42;;
51995;SDS011;38010;53.264;6.592;2023-05-07T10:18:30;2.47;;;2.28;;
51995;SDS011;38010;53.264;6.592;2023-05-07T10:21:01;3.33;;;2.60;;
51995;SDS011;38010;53.264;6.592;2023-05-07T10:23:32;2.33;;;2.13;;
51995;SDS011;38010;53.264;6.592;2023-05-07T10:25:58;2.55;;;2.22;;
51995;SDS011;38010;53.264;6.592;2023-05-07T10:28:30;3.65;;;2.75;;
51995;SDS011;38010;53.264;6.592;2023-05-07T10:31:03;3.00;;;2.70;;
51995;SDS011;38010;53.264;6.592;2023-05-07T10:33:40;2.88;;;2.67;;
51995;SDS011;38010;53.264;6.592;2023-05-07T10:36:09;2.83;;;2.60;;
51995;SDS011;38010;53.264;6.592;2023-05-07T10:38:36;2.67;;;2.20;;
51995;SDS011;38010;53.264;6.592;2023-05-07T10:41:01;2.97;;;2.70;;
51995;SDS011;38010;53.264;6.592;2023-05-07T10:43:48;3.17;;;2.70;;
51995;SDS011;38010;53.264;6.592;2023-05-07T10:51:29;3.05;;;2.63;;
51995;SDS011;38010;53.264;6.592;2023-05-07T10:56:38;2.75;;;2.20;;
51995;SDS011;38010;53.264;6.592;2023-05-07T11:01:53;2.40;;;2.20;;
51995;SDS011;38010;53.264;6.592;2023-05-07T11:04:20;4.20;;;3.13;;
51995;SDS011;38010;53.264;6.592;2023-05-07T11:15:05;2.63;;;2.42;;
51995;SDS011;38010;53.264;6.592;2023-05-07T11:17:32;2.85;;;2.55;;
51995;SDS011;38010;53.264;6.592;2023-05-07T11:20:00;2.88;;;2.60;;
51995;SDS011;38010;53.264;6.592;2023-05-07T11:25:00;2.42;;;2.22;;
51995;SDS011;38010;53.264;6.592;2023-05-07T11:27:31;2.60;;;2.17;;
51995;SDS011;38010;53.264;6.592;2023-05-07T11:29:57;2.80;;;2.20;;
51995;SDS011;38010;53.264;6.592;2023-05-07T11:32:27;2.58;;;2.38;;
51995;SDS011;38010;53.264;6.592;2023-05-07T11:34:55;2.22;;;2.03;;
51995;SDS011;38010;53.264;6.592;2023-05-07T11:37:21;3.17;;;2.28;;
51995;SDS011;38010;53.264;6.592;2023-05-07T11:39:48;2.38;;;2.00;;
51995;SDS011;38010;53.264;6.592;2023-05-07T11:42:30;2.58;;;2.15;;
51995;SDS011;38010;53.264;6.592;2023-05-07T11:44:57;2.45;;;2.25;;
51995;SDS011;38010;53.264;6.592;2023-05-07T11:47:24;2.10;;;1.90;;
51995;SDS011;38010;53.264;6.592;2023-05-07T11:49:51;2.17;;;1.98;;
51995;SDS011;38010;53.264;6.592;2023-05-07T11:52:18;1.98;;;1.85;;
51995;SDS011;38010;53.264;6.592;2023-05-07T11:54:48;2.35;;;2.13;;
51995;SDS011;38010;53.264;6.592;2023-05-07T11:57:15;2.22;;;2.03;;
51995;SDS011;38010;53.264;6.592;2023-05-07T11:59:40;2.45;;;2.25;;
51995;SDS011;38010;53.264;6.592;2023-05-07T12:02:07;2.08;;;1.88;;
51995;SDS011;38010;53.264;6.592;2023-05-07T12:04:34;2.30;;;2.10;;
51995;SDS011;38010;53.264;6.592;2023-05-07T12:06:59;3.00;;;1.80;;
51995;SDS011;38010;53.264;6.592;2023-05-07T12:09:26;1.80;;;1.70;;
51995;SDS011;38010;53.264;6.592;2023-05-07T12:11:52;2.63;;;1.90;;
51995;SDS011;38010;53.264;6.592;2023-05-07T12:14:18;2.30;;;2.00;;
51995;SDS011;38010;53.264;6.592;2023-05-07T12:16:44;2.25;;;2.05;;
51995;SDS011;38010;53.264;6.592;2023-05-07T12:19:10;1.73;;;1.63;;
51995;SDS011;38010;53.264;6.592;2023-05-07T12:21:39;2.38;;;1.75;;
51995;SDS011;38010;53.264;6.592;2023-05-07T12:24:06;2.10;;;1.90;;
51995;SDS011;38010;53.264;6.592;2023-05-07T12:26:36;1.88;;;1.73;;
51995;SDS011;38010;53.264;6.592;2023-05-07T12:29:03;1.65;;;1.50;;
51995;SDS011;38010;53.264;6.592;2023-05-07T12:31:29;2.92;;;1.98;;
51995;SDS011;38010;53.264;6.592;2023-05-07T12:33:55;2.63;;;1.90;;
51995;SDS011;38010;53.264;6.592;2023-05-07T12:36:21;2.05;;;1.60;;
51995;SDS011;38010;53.264;6.592;2023-05-07T12:38:48;2.20;;;2.00;;
51995;SDS011;38010;53.264;6.592;2023-05-07T12:41:15;4.10;;;2.35;;
51995;SDS011;38010;53.264;6.592;2023-05-07T12:43:43;2.20;;;2.00;;
51995;SDS011;38010;53.264;6.592;2023-05-07T12:46:10;2.20;;;2.00;;
51995;SDS011;38010;53.264;6.592;2023-05-07T12:48:43;2.22;;;2.03;;
51995;SDS011;38010;53.264;6.592;2023-05-07T12:51:11;2.05;;;1.85;;
51995;SDS011;38010;53.264;6.592;2023-05-07T12:53:41;2.08;;;1.88;;
51995;SDS011;38010;53.264;6.592;2023-05-07T12:56:08;2.30;;;2.05;;
51995;SDS011;38010;53.264;6.592;2023-05-07T12:58:34;1.88;;;1.70;;
51995;SDS011;38010;53.264;6.592;2023-05-07T13:01:04;1.95;;;1.83;;
51995;SDS011;38010;53.264;6.592;2023-05-07T13:03:31;2.47;;;2.10;;
51995;SDS011;38010;53.264;6.592;2023-05-07T13:06:01;2.20;;;1.85;;
51995;SDS011;38010;53.264;6.592;2023-05-07T13:08:32;1.77;;;1.67;;
51995;SDS011;38010;53.264;6.592;2023-05-07T13:11:00;2.58;;;1.73;;
51995;SDS011;38010;53.264;6.592;2023-05-07T13:13:33;1.67;;;1.58;;
51995;SDS011;38010;53.264;6.592;2023-05-07T13:16:04;2.17;;;1.98;;
51995;SDS011;38010;53.264;6.592;2023-05-07T13:18:31;1.85;;;1.73;;
51995;SDS011;38010;53.264;6.592;2023-05-07T13:20:57;1.83;;;1.73;;
51995;SDS011;38010;53.264;6.592;2023-05-07T13:23:24;2.03;;;1.77;;
51995;SDS011;38010;53.264;6.592;2023-05-07T13:25:50;2.50;;;2.20;;
51995;SDS011;38010;53.264;6.592;2023-05-07T13:28:16;2.13;;;1.92;;
51995;SDS011;38010;53.264;6.592;2023-05-07T13:30:41;2.25;;;1.85;;
51995;SDS011;38010;53.264;6.592;2023-05-07T13:33:08;2.10;;;1.63;;
51995;SDS011;38010;53.264;6.592;2023-05-07T13:35:34;1.92;;;1.70;;
51995;SDS011;38010;53.264;6.592;2023-05-07T13:38:00;1.95;;;1.75;;
51995;SDS011;38010;53.264;6.592;2023-05-07T13:40:26;1.98;;;1.77;;
51995;SDS011;38010;53.264;6.592;2023-05-07T13:42:51;1.88;;;1.67;;
51995;SDS011;38010;53.264;6.592;2023-05-07T13:45:18;1.65;;;1.55;;
51995;SDS011;38010;53.264;6.592;2023-05-07T13:47:44;2.05;;;1.83;;
51995;SDS011;38010;53.264;6.592;2023-05-07T13:50:11;2.22;;;1.73;;
51995;SDS011;38010;53.264;6.592;2023-05-07T13:52:39;1.48;;;1.38;;
51995;SDS011;38010;53.264;6.592;2023-05-07T13:55:08;1.95;;;1.83;;
51995;SDS011;38010;53.264;6.592;2023-05-07T13:57:35;1.75;;;1.65;;
51995;SDS011;38010;53.264;6.592;2023-05-07T14:00:03;3.22;;;1.88;;
51995;SDS011;38010;53.264;6.592;2023-05-07T14:02:30;2.40;;;1.83;;
51995;SDS011;38010;53.264;6.592;2023-05-07T14:04:57;2.03;;;1.67;;
51995;SDS011;38010;53.264;6.592;2023-05-07T14:07:23;2.00;;;1.48;;
51995;SDS011;38010;53.264;6.592;2023-05-07T14:09:48;1.42;;;1.33;;
51995;SDS011;38010;53.264;6.592;2023-05-07T14:12:14;1.50;;;1.40;;
51995;SDS011;38010;53.264;6.592;2023-05-07T14:14:40;1.90;;;1.80;;
51995;SDS011;38010;53.264;6.592;2023-05-07T14:17:06;2.90;;;2.15;;
51995;SDS011;38010;53.264;6.592;2023-05-07T14:19:33;2.00;;;1.80;;
51995;SDS011;38010;53.264;6.592;2023-05-07T14:21:59;2.42;;;1.90;;
51995;SDS011;38010;53.264;6.592;2023-05-07T14:24:24;1.95;;;1.85;;
51995;SDS011;38010;53.264;6.592;2023-05-07T14:26:50;2.00;;;1.80;;
51995;SDS011;38010;53.264;6.592;2023-05-07T14:29:16;2.58;;;1.77;;
51995;SDS011;38010;53.264;6.592;2023-05-07T14:31:44;1.85;;;1.75;;
51995;SDS011;38010;53.264;6.592;2023-05-07T14:34:10;2.17;;;1.75;;
51995;SDS011;38010;53.264;6.592;2023-05-07T14:36:36;1.85;;;1.75;;
51995;SDS011;38010;53.264;6.592;2023-05-07T14:39:03;2.60;;;2.40;;
51995;SDS011;38010;53.264;6.592;2023-05-07T14:41:29;2.10;;;2.00;;
51995;SDS011;38010;53.264;6.592;2023-05-07T14:43:56;2.28;;;2.10;;
51995;SDS011;38010;53.264;6.592;2023-05-07T14:46:23;2.00;;;1.85;;
51995;SDS011;38010;53.264;6.592;2023-05-07T14:48:49;2.38;;;2.00;;
51995;SDS011;38010;53.264;6.592;2023-05-07T14:51:15;2.05;;;1.92;;
51995;SDS011;38010;53.264;6.592;2023-05-07T14:53:41;2.03;;;1.83;;
51995;SDS011;38010;53.264;6.592;2023-05-07T14:56:07;2.35;;;2.03;;
51995;SDS011;38010;53.264;6.592;2023-05-07T14:58:33;1.77;;;1.67;;
51995;SDS011;38010;53.264;6.592;2023-05-07T15:01:00;2.00;;;1.80;;
51995;SDS011;38010;53.264;6.592;2023-05-07T15:03:26;2.17;;;1.58;;
51995;SDS011;38010;53.264;6.592;2023-05-07T15:05:52;1.77;;;1.67;;
51995;SDS011;38010;53.264;6.592;2023-05-07T15:08:18;1.83;;;1.60;;